CheckWX is a tool to help pilots better visualize weather data.  It is not intended as a substitute for an official pre-flight weather briefing.

19:15:16 UTC

FNMO METAR
Namibe Airport
Namibe, Angola
Current

4 hours ago

FNMO 261500Z 25009KT 9999 FEW008 23/18 Q1010
Observed
May-26 @ 15:00 UTC
Wind
  • 250° at 9 KTS
Visibility
10,000+ meters
Flight Rules
VFR
Cloud Levels
  • Few at 800' AGL
Temperature
23°C / 73°F
Dewpoint
18°C / 64°F
Humidity
74%
Altimeter
29.82" Hg
Pressure
1009.92 hPa
Previous

5 hours ago

FNMO 261400Z 25010KT 9999 FEW012 23/18 Q1010
Observed
May-26 @ 14:00 UTC
Wind
  • 250° at 10 KTS
Visibility
10,000+ meters
Flight Rules
VFR
Cloud Levels
  • Few at 1,200' AGL
Temperature
23°C / 73°F
Dewpoint
18°C / 64°F
Humidity
74%
Altimeter
29.82" Hg
Pressure
1009.92 hPa
Previous

7 hours ago

FNMO 261200Z 26010KT 9999 SCT012 22/18 Q1012
Observed
May-26 @ 12:00 UTC
Wind
  • 260° at 10 KTS
Visibility
10,000+ meters
Flight Rules
VFR
Cloud Levels
  • Scattered at 1,200' AGL
Temperature
22°C / 72°F
Dewpoint
18°C / 64°F
Humidity
78%
Altimeter
29.88" Hg
Pressure
1011.92 hPa